Time;durP1;ratioP1;P1;durP2;ratioP2;P2;SDS_P1;SDS_P2;PMS_P1;PMS_P2;Temp;Humidity;BMP_temperature;BMP_pressure;BME280_temperature;BME280_humidity;BME280_pressure;Samples;Min_cycle;Max_cycle;Signal;HPM_P1;HPM_P2
2021/09/22 00:00:00;;;;;;;12.93;8.50;;;;;;;19.33;61.13;99235.16;5032307;28;20250;-64
2021/09/22 00:02:28;;;;;;;13.67;8.17;;;;;;;19.34;60.94;99225.97;5023512;28;20202;-65
2021/09/22 00:04:55;;;;;;;13.83;9.83;;;;;;;18.88;62.02;99231.91;5021697;28;20233;-65
2021/09/22 00:07:22;;;;;;;15.07;8.93;;;;;;;19.05;62.33;99227.53;5027488;28;20203;-64
2021/09/22 00:09:50;;;;;;;12.73;8.93;;;;;;;19.23;61.71;99232.16;5028660;28;20297;-65
2021/09/22 00:12:18;;;;;;;12.90;8.43;;;;;;;19.11;61.89;99221.22;5029836;28;20219;-64
2021/09/22 00:14:46;;;;;;;15.23;9.70;;;;;;;19.40;60.93;99227.81;5027731;28;20227;-65
2021/09/22 00:17:13;;;;;;;14.33;9.47;;;;;;;19.09;61.54;99227.91;5031347;28;20208;-64
2021/09/22 00:19:40;;;;;;;13.77;9.50;;;;;;;19.01;62.82;99228.22;5033948;28;20202;-66
2021/09/22 00:22:07;;;;;;;12.90;9.07;;;;;;;19.07;62.55;99221.91;5036916;28;20212;-65
2021/09/22 00:24:35;;;;;;;16.23;10.10;;;;;;;19.00;62.70;99218.47;5029759;28;20229;-65
2021/09/22 00:27:02;;;;;;;16.83;10.20;;;;;;;19.16;61.96;99217.84;5020610;28;20653;-65
2021/09/22 00:29:31;;;;;;;15.73;9.47;;;;;;;19.22;61.65;99208.88;5022973;28;20211;-65
2021/09/22 00:31:58;;;;;;;13.33;9.17;;;;;;;19.13;62.32;99226.41;5024416;28;20211;-65
2021/09/22 00:34:26;;;;;;;16.63;9.50;;;;;;;18.85;63.44;99221.50;5027934;28;20243;-65
2021/09/22 00:36:53;;;;;;;14.67;9.63;;;;;;;18.72;63.54;99224.38;5023903;28;20208;-65
2021/09/22 00:39:20;;;;;;;16.73;9.27;;;;;;;19.17;61.46;99231.16;5027152;28;20207;-65
2021/09/22 00:41:47;;;;;;;14.37;9.73;;;;;;;19.24;61.33;99218.41;5024521;28;20573;-66
2021/09/22 00:44:15;;;;;;;14.47;9.40;;;;;;;19.26;61.23;99213.59;5029040;28;20227;-66
2021/09/22 00:46:44;;;;;;;14.90;10.17;;;;;;;19.22;61.12;99219.69;5024530;28;20565;-66
2021/09/22 00:49:11;;;;;;;14.47;9.60;;;;;;;18.91;62.48;99217.09;5028127;28;20208;-65
2021/09/22 00:51:38;;;;;;;13.07;9.00;;;;;;;19.06;62.21;99214.84;5027014;28;20207;-65
2021/09/22 00:54:06;;;;;;;12.40;9.37;;;;;;;18.84;62.81;99209.06;5029988;28;20227;-65
2021/09/22 00:56:33;;;;;;;16.00;9.63;;;;;;;18.99;62.31;99211.41;5030559;28;20231;-67
2021/09/22 00:59:00;;;;;;;17.73;10.43;;;;;;;18.90;62.85;99216.25;5025315;28;20572;-66
2021/09/22 01:01:34;;;;;;;13.30;9.23;;;;;;;18.59;63.63;99212.88;5021352;28;20242;-67
2021/09/22 01:04:03;;;;;;;12.80;9.27;;;;;;;18.44;64.80;99207.78;5029450;28;20225;-66
2021/09/22 01:06:30;;;;;;;15.13;10.10;;;;;;;18.16;65.88;99211.94;5017295;28;20225;-66
2021/09/22 01:09:00;;;;;;;13.70;9.70;;;;;;;18.55;64.97;99212.44;5019425;28;20200;-67
2021/09/22 01:11:28;;;;;;;16.73;9.50;;;;;;;18.84;63.58;99213.66;5026831;28;20245;-67
2021/09/22 01:13:56;;;;;;;13.57;9.50;;;;;;;18.43;65.37;99218.81;5025707;28;20248;-67
2021/09/22 01:16:23;;;;;;;14.77;9.70;;;;;;;18.18;65.85;99217.97;5024227;28;20663;-66
2021/09/22 01:18:51;;;;;;;16.87;9.97;;;;;;;18.55;65.03;99230.56;5025313;28;20210;-66
2021/09/22 01:21:21;;;;;;;16.33;9.43;;;;;;;18.76;64.13;99225.59;5029557;28;20301;-64
2021/09/22 01:23:49;;;;;;;16.60;10.87;;;;;;;18.62;64.11;99217.81;5026146;28;20722;-66
2021/09/22 01:26:16;;;;;;;14.30;9.53;;;;;;;18.92;63.12;99226.88;5022893;28;20237;-66
2021/09/22 01:28:43;;;;;;;15.40;9.93;;;;;;;18.44;65.22;99228.59;5019960;28;20204;-64
2021/09/22 01:31:10;;;;;;;14.07;9.80;;;;;;;18.68;64.69;99225.88;5022451;28;20286;-64
2021/09/22 01:33:38;;;;;;;16.57;10.07;;;;;;;18.79;63.88;99227.03;5019422;28;20227;-66
2021/09/22 01:36:06;;;;;;;16.47;10.37;;;;;;;18.69;64.39;99230.22;5025051;28;20230;-66
2021/09/22 01:38:34;;;;;;;18.37;10.27;;;;;;;18.74;64.17;99229.56;5024013;28;21250;-66
2021/09/22 01:41:03;;;;;;;15.83;9.23;;;;;;;18.64;64.37;99238.16;5020657;28;20231;-66
2021/09/22 01:43:31;;;;;;;13.57;9.57;;;;;;;18.66;64.36;99229.84;5032306;28;20218;-66
2021/09/22 01:46:00;;;;;;;15.10;9.20;;;;;;;18.68;63.93;99227.72;5031933;28;20249;-66
2021/09/22 01:48:28;;;;;;;14.83;10.10;;;;;;;18.34;63.93;99236.38;5024035;28;20211;-66
2021/09/22 01:50:56;;;;;;;14.83;9.67;;;;;;;18.62;64.12;99234.88;5020996;28;20206;-65
2021/09/22 01:53:23;;;;;;;17.47;9.50;;;;;;;18.70;64.16;99237.28;5028647;28;20234;-65
2021/09/22 01:55:53;;;;;;;15.67;9.93;;;;;;;18.83;63.37;99237.16;5022694;28;20211;-65
2021/09/22 01:58:21;;;;;;;15.93;10.37;;;;;;;18.65;63.69;99231.69;5027551;28;20624;-65
2021/09/22 02:00:48;;;;;;;14.67;9.33;;;;;;;18.45;63.94;99230.25;5021448;28;20222;-65
2021/09/22 02:03:16;;;;;;;13.90;9.60;;;;;;;18.09;65.69;99225.50;5028633;28;20233;-65
2021/09/22 02:05:43;;;;;;;15.27;10.73;;;;;;;18.27;65.81;99228.28;5026569;28;20566;-65
2021/09/22 02:08:11;;;;;;;15.10;10.07;;;;;;;18.59;64.78;99223.69;5020537;28;20202;-65
2021/09/22 02:10:38;;;;;;;15.20;9.93;;;;;;;18.25;65.96;99219.59;5021051;28;20684;-65
2021/09/22 02:13:07;;;;;;;15.73;10.33;;;;;;;18.20;66.67;99219.41;5022311;28;20225;-65
2021/09/22 02:15:35;;;;;;;15.03;9.70;;;;;;;18.18;66.67;99209.88;5024692;28;20215;-65
2021/09/22 02:18:02;;;;;;;13.87;9.53;;;;;;;18.06;67.36;99201.63;5023557;28;20211;-66
2021/09/22 02:20:30;;;;;;;17.17;10.40;;;;;;;18.45;65.70;99205.91;5022626;28;20219;-66
2021/09/22 02:22:57;;;;;;;20.17;10.37;;;;;;;18.20;66.54;99205.91;5031108;28;20234;-66
2021/09/22 02:25:25;;;;;;;14.23;10.20;;;;;;;18.29;66.59;99214.56;5030123;28;20198;-66
2021/09/22 02:27:52;;;;;;;16.27;10.93;;;;;;;18.14;66.75;99206.75;5029692;28;20666;-66
2021/09/22 02:30:22;;;;;;;15.23;10.47;;;;;;;18.13;67.05;99207.00;5030771;28;20216;-67
2021/09/22 02:32:50;;;;;;;18.13;11.07;;;;;;;18.40;65.79;99203.06;5026509;28;20196;-67
2021/09/22 02:35:17;;;;;;;16.80;10.10;;;;;;;18.74;64.21;99213.34;5031759;28;20199;-67
2021/09/22 02:37:45;;;;;;;16.17;10.80;;;;;;;18.53;64.99;99205.63;5031625;28;20677;-67
2021/09/22 02:40:16;;;;;;;16.50;10.60;;;;;;;18.66;64.62;99210.91;5025216;28;20207;-67
2021/09/22 02:42:45;;;;;;;16.30;10.70;;;;;;;18.66;64.12;99203.63;5020632;28;20198;-67
2021/09/22 02:45:13;;;;;;;13.50;9.73;;;;;;;18.67;64.46;99212.56;5024186;28;20218;-67
2021/09/22 02:47:42;;;;;;;15.60;10.50;;;;;;;18.59;64.44;99202.06;5030222;28;20205;-65
2021/09/22 02:50:11;;;;;;;15.33;10.27;;;;;;;18.18;66.47;99193.66;5021842;28;20686;-66
2021/09/22 02:52:38;;;;;;;14.03;9.77;;;;;;;18.47;64.83;99191.13;5025385;28;20210;-66
2021/09/22 02:55:07;;;;;;;15.37;10.13;;;;;;;18.36;65.86;99185.63;5024737;28;20199;-67
2021/09/22 02:57:34;;;;;;;13.57;9.77;;;;;;;18.62;63.54;99196.19;5030024;28;20205;-67
2021/09/22 03:00:02;;;;;;;16.30;10.47;;;;;;;18.12;64.68;99197.22;5018410;28;20210;-66
2021/09/22 03:02:30;;;;;;;15.03;10.20;;;;;;;18.47;64.46;99190.28;5019746;28;20227;-66
2021/09/22 03:04:58;;;;;;;14.03;9.63;;;;;;;18.46;64.58;99199.47;5022617;28;20219;-66
2021/09/22 03:07:26;;;;;;;16.37;9.97;;;;;;;18.04;66.23;99194.81;5022984;28;20294;-67
2021/09/22 03:09:53;;;;;;;17.67;9.77;;;;;;;18.22;66.01;99195.69;5031190;28;20198;-66
2021/09/22 03:12:20;;;;;;;16.33;10.80;;;;;;;18.61;64.59;99203.47;5024267;28;20563;-66
2021/09/22 03:14:48;;;;;;;16.97;10.90;;;;;;;18.46;64.17;99200.28;5023024;28;20231;-66
2021/09/22 03:17:15;;;;;;;16.47;10.43;;;;;;;18.53;63.74;99198.34;5030893;28;20215;-66
2021/09/22 03:19:42;;;;;;;14.57;10.40;;;;;;;18.36;64.22;99193.72;5028765;28;20685;-66
2021/09/22 03:22:11;;;;;;;18.33;10.97;;;;;;;18.42;64.60;99196.38;5031222;28;20226;-67
2021/09/22 03:24:38;;;;;;;18.47;10.90;;;;;;;18.38;64.67;99197.03;5027218;28;20229;-67
2021/09/22 03:27:06;;;;;;;19.87;11.47;;;;;;;18.35;63.79;99195.59;5031198;28;20757;-65
2021/09/22 03:29:33;;;;;;;17.93;11.13;;;;;;;18.01;66.72;99195.22;5027384;28;20218;-64
2021/09/22 03:32:00;;;;;;;16.87;11.20;;;;;;;18.02;66.85;99194.16;5022299;28;20198;-65
2021/09/22 03:34:27;;;;;;;19.67;11.37;;;;;;;18.38;65.10;99195.16;5027298;28;20226;-66
2021/09/22 03:36:55;;;;;;;19.87;12.17;;;;;;;18.38;64.83;99200.56;5025846;28;20202;-66
2021/09/22 03:39:24;;;;;;;18.97;12.37;;;;;;;18.31;64.56;99202.47;5024948;28;20202;-65
2021/09/22 03:41:51;;;;;;;17.97;11.67;;;;;;;18.52;63.84;99204.81;5024953;28;20227;-65
2021/09/22 03:44:25;;;;;;;20.90;11.93;;;;;;;18.48;63.79;99217.09;5025183;28;20233;-66
2021/09/22 03:46:52;;;;;;;20.23;12.20;;;;;;;17.65;67.12;99216.66;5032216;28;20711;-66
2021/09/22 03:49:20;;;;;;;18.63;12.20;;;;;;;18.19;66.60;99214.22;5030768;28;20214;-65
2021/09/22 03:51:47;;;;;;;21.90;12.90;;;;;;;18.38;65.04;99218.66;5029355;28;20202;-65
2021/09/22 03:54:14;;;;;;;23.27;13.80;;;;;;;17.75;66.99;99215.16;5029250;28;20592;-65
2021/09/22 03:56:43;;;;;;;22.80;14.17;;;;;;;18.35;65.93;99224.50;5026478;28;20202;-65
2021/09/22 03:59:10;;;;;;;19.57;13.07;;;;;;;18.41;65.03;99224.47;5028217;28;20210;-65
2021/09/22 04:01:38;;;;;;;24.20;13.53;;;;;;;18.46;64.85;99215.69;5029114;28;20700;-65
2021/09/22 04:04:05;;;;;;;22.37;13.37;;;;;;;18.34;65.14;99220.16;5027186;28;20694;-65
2021/09/22 04:06:33;;;;;;;21.33;13.30;;;;;;;18.43;65.37;99221.50;5025507;28;20638;-65
2021/09/22 04:09:00;;;;;;;21.03;13.00;;;;;;;18.45;64.96;99231.06;5030703;28;20206;-65
2021/09/22 04:11:27;;;;;;;25.30;13.60;;;;;;;18.54;64.34;99232.44;5028577;28;20199;-65
2021/09/22 04:13:56;;;;;;;21.33;12.97;;;;;;;18.38;64.78;99227.59;5029140;28;20234;-65
2021/09/22 04:16:24;;;;;;;22.33;13.50;;;;;;;17.66;67.52;99235.34;5025540;28;20206;-64
2021/09/22 04:18:52;;;;;;;23.23;13.57;;;;;;;18.01;67.44;99223.09;5029687;28;20209;-64
2021/09/22 04:21:19;;;;;;;19.93;13.20;;;;;;;18.40;65.30;99224.69;5020201;28;20248;-66
2021/09/22 04:23:46;;;;;;;24.13;13.60;;;;;;;18.06;66.38;99225.13;5031747;28;20229;-67
2021/09/22 04:26:16;;;;;;;20.40;12.70;;;;;;;18.10;66.49;99226.34;5025545;28;20210;-66
2021/09/22 04:28:44;;;;;;;25.67;14.20;;;;;;;17.87;66.15;99228.78;5027798;28;20207;-65
2021/09/22 04:31:12;;;;;;;26.93;15.83;;;;;;;18.10;65.82;99229.03;5025136;28;20209;-65
2021/09/22 04:33:40;;;;;;;22.17;12.60;;;;;;;17.85;67.09;99237.13;5026143;28;20237;-70
2021/09/22 04:36:07;;;;;;;22.07;13.73;;;;;;;17.77;67.66;99236.53;5028862;28;20579;-75
2021/09/22 04:38:35;;;;;;;25.67;13.80;;;;;;;18.21;65.39;99228.34;5032228;28;20199;-75
2021/09/22 04:41:04;;;;;;;24.37;14.27;;;;;;;18.33;64.82;99234.69;5034356;28;20664;-78
2021/09/22 04:43:31;;;;;;;28.07;15.07;;;;;;;18.31;64.87;99232.22;5033627;28;20310;-69
2021/09/22 04:46:22;;;;;;;23.73;14.30;;;;;;;18.33;64.70;99237.41;5026923;28;20205;-70
2021/09/22 04:48:50;;;;;;;22.13;13.40;;;;;;;18.37;64.06;99233.22;5025181;28;20203;-67
2021/09/22 04:51:17;;;;;;;25.87;15.17;;;;;;;18.19;64.02;99235.84;5030214;28;20691;-66
2021/09/22 04:53:44;;;;;;;26.03;14.60;;;;;;;17.98;65.92;99225.41;5026038;28;20250;-68
2021/09/22 04:56:12;;;;;;;24.20;13.93;;;;;;;17.91;66.47;99220.03;5028786;28;20231;-70
2021/09/22 04:58:39;;;;;;;28.67;15.37;;;;;;;17.77;66.88;99220.31;5030806;28;20205;-67
2021/09/22 05:01:06;;;;;;;23.90;14.17;;;;;;;17.90;67.00;99226.50;5031960;28;20234;-67
2021/09/22 05:03:44;;;;;;;28.43;15.87;;;;;;;18.10;66.41;99227.19;5033533;28;20249;-68
2021/09/22 05:06:11;;;;;;;25.20;15.27;;;;;;;18.13;65.76;99234.03;5031889;28;20203;-71
2021/09/22 05:08:47;;;;;;;31.23;14.50;;;;;;;18.31;65.06;99234.06;5035470;28;20213;-72
2021/09/22 05:11:15;;;;;;;28.50;16.10;;;;;;;18.43;64.80;99235.03;5034529;28;20224;-73
2021/09/22 05:13:42;;;;;;;31.03;17.87;;;;;;;18.07;66.14;99234.88;5041904;28;20222;-66
2021/09/22 05:16:09;;;;;;;26.53;15.53;;;;;;;18.26;65.89;99225.78;5024803;28;20207;-69
2021/09/22 05:18:37;;;;;;;25.23;15.57;;;;;;;18.28;65.62;99231.81;5028594;28;20212;-78
2021/09/22 05:21:05;;;;;;;29.23;15.23;;;;;;;18.42;64.84;99242.34;5033745;28;20202;-78
2021/09/22 05:23:33;;;;;;;30.17;16.73;;;;;;;18.29;65.23;99233.47;5039765;28;20226;-78
2021/09/22 05:26:00;;;;;;;31.57;16.53;;;;;;;18.42;65.63;99236.94;5030297;28;20206;-78
2021/09/22 05:28:27;;;;;;;29.60;16.30;;;;;;;18.57;65.08;99236.56;5033814;28;20207;-71
2021/09/22 05:30:55;;;;;;;28.33;16.77;;;;;;;18.56;64.91;99240.34;5028481;28;20667;-75
2021/09/22 05:33:22;;;;;;;25.47;15.03;;;;;;;18.65;64.77;99239.00;5027081;28;20740;-68
2021/09/22 05:35:49;;;;;;;25.67;15.43;;;;;;;18.65;64.88;99239.00;5032144;28;20608;-68
2021/09/22 05:38:21;;;;;;;26.40;14.93;;;;;;;18.76;64.90;99241.81;5032506;28;20209;-67
2021/09/22 05:40:49;;;;;;;30.50;15.00;;;;;;;18.69;64.68;99237.53;5024452;28;20289;-68
2021/09/22 05:43:16;;;;;;;28.77;16.13;;;;;;;18.64;65.32;99237.34;5031484;28;20246;-68
2021/09/22 05:45:43;;;;;;;26.90;15.90;;;;;;;18.86;64.24;99247.53;5031071;28;20201;-68
2021/09/22 05:48:11;;;;;;;30.90;15.63;;;;;;;18.58;65.33;99246.34;5028672;28;20206;-68
2021/09/22 05:50:38;;;;;;;30.90;14.60;;;;;;;18.90;64.46;99240.59;5024208;28;20773;-68
2021/09/22 05:53:05;;;;;;;28.13;15.43;;;;;;;18.97;63.96;99241.38;5025886;28;20223;-68
2021/09/22 05:55:34;;;;;;;25.73;14.63;;;;;;;19.17;63.63;99243.88;5028354;28;20209;-69
2021/09/22 05:58:01;;;;;;;27.87;15.50;;;;;;;19.20;63.80;99238.81;5029798;28;20207;-76
2021/09/22 06:00:29;;;;;;;26.93;14.73;;;;;;;19.44;63.40;99235.25;5030080;28;20211;-73
2021/09/22 06:02:56;;;;;;;26.30;14.50;;;;;;;19.47;62.85;99233.94;5039312;28;20223;-74
2021/09/22 06:05:23;;;;;;;24.57;15.70;;;;;;;19.70;63.11;99234.88;5029392;28;20211;-70
2021/09/22 06:07:51;;;;;;;23.37;15.17;;;;;;;19.73;62.96;99237.16;5027435;28;20209;-72
2021/09/22 06:10:18;;;;;;;24.23;15.37;;;;;;;19.76;62.52;99242.09;5033524;28;20514;-73
2021/09/22 06:12:47;;;;;;;25.80;14.00;;;;;;;19.93;62.28;99243.13;5030124;28;20202;-71
2021/09/22 06:15:14;;;;;;;24.63;13.80;;;;;;;20.06;61.99;99237.47;5041009;28;20213;-71
2021/09/22 06:17:41;;;;;;;24.67;13.87;;;;;;;20.17;61.82;99241.34;5029784;28;20290;-69
2021/09/22 06:20:10;;;;;;;23.77;14.80;;;;;;;20.41;61.98;99246.56;5032146;28;20215;-70
2021/09/22 06:22:37;;;;;;;23.30;14.10;;;;;;;20.46;61.17;99240.44;5031556;28;20455;-69
2021/09/22 06:25:05;;;;;;;20.93;13.87;;;;;;;20.40;60.38;99253.03;5035895;28;20224;-69
2021/09/22 06:27:33;;;;;;;23.53;14.67;;;;;;;20.72;59.95;99250.84;5036499;28;20211;-70
2021/09/22 06:30:02;;;;;;;19.83;13.50;;;;;;;20.31;59.60;99251.72;5031983;28;20203;-70
2021/09/22 06:32:29;;;;;;;20.97;13.60;;;;;;;20.99;59.55;99252.03;5030592;28;20195;-71
2021/09/22 06:34:57;;;;;;;21.83;13.70;;;;;;;21.14;57.67;99246.94;5027703;28;20232;-71
2021/09/22 06:37:24;;;;;;;19.37;13.00;;;;;;;21.18;56.63;99253.56;5031388;28;20570;-74
2021/09/22 06:39:51;;;;;;;20.73;13.17;;;;;;;21.40;56.52;99252.69;5031445;28;20251;-67
2021/09/22 06:42:18;;;;;;;21.13;13.50;;;;;;;21.61;55.49;99253.91;5028786;28;20234;-67
2021/09/22 06:44:46;;;;;;;19.70;12.63;;;;;;;21.67;54.59;99258.38;5026167;28;20244;-67
2021/09/22 06:47:15;;;;;;;21.10;12.83;;;;;;;21.64;54.62;99253.44;5027359;28;20209;-67
2021/09/22 06:49:42;;;;;;;18.27;11.70;;;;;;;22.05;54.65;99259.44;5035402;28;20204;-67
2021/09/22 06:52:09;;;;;;;18.60;12.33;;;;;;;21.85;54.43;99259.09;5031351;28;20240;-67
2021/09/22 06:54:36;;;;;;;17.70;12.20;;;;;;;21.28;54.28;99261.94;5031082;28;20222;-67
2021/09/22 06:57:04;;;;;;;16.97;11.50;;;;;;;21.75;53.80;99260.78;5019970;28;20205;-67
2021/09/22 06:59:31;;;;;;;21.37;11.97;;;;;;;22.30;53.08;99264.53;5029191;28;20304;-66
2021/09/22 07:01:59;;;;;;;20.27;12.40;;;;;;;22.67;52.46;99265.72;5021822;28;20235;-65
2021/09/22 07:04:27;;;;;;;19.27;11.40;;;;;;;22.28;51.70;99272.94;5023279;28;20219;-65
2021/09/22 07:06:55;;;;;;;20.77;12.10;;;;;;;22.06;53.05;99265.72;5030884;28;20244;-65
2021/09/22 07:09:22;;;;;;;23.73;12.60;;;;;;;21.80;53.02;99278.00;5028210;28;20770;-65
2021/09/22 07:11:49;;;;;;;23.40;12.70;;;;;;;22.20;51.67;99280.66;5026337;28;20301;-65
2021/09/22 07:14:17;;;;;;;20.37;12.67;;;;;;;22.84;50.84;99283.69;5030902;28;20230;-65
2021/09/22 07:16:44;;;;;;;17.93;11.33;;;;;;;22.97;50.48;99274.38;5033829;28;20203;-65
2021/09/22 07:19:12;;;;;;;21.97;12.47;;;;;;;22.99;49.28;99281.22;5036088;28;20208;-65
2021/09/22 07:21:40;;;;;;;17.93;11.73;;;;;;;23.10;49.41;99290.38;5027327;28;20207;-67
2021/09/22 07:24:08;;;;;;;17.93;11.93;;;;;;;22.90;49.70;99295.50;5037697;28;20227;-67
2021/09/22 07:26:35;;;;;;;20.53;11.87;;;;;;;21.86;51.13;99298.78;5027431;28;20563;-65
2021/09/22 07:29:03;;;;;;;19.77;11.97;;;;;;;22.55;50.38;99293.00;5034015;28;20207;-66
2021/09/22 07:31:30;;;;;;;17.83;12.53;;;;;;;21.84;53.30;99295.47;5034511;28;20207;-66
2021/09/22 07:33:57;;;;;;;18.40;11.37;;;;;;;22.08;52.39;99294.31;5037051;28;20226;-66
2021/09/22 07:36:25;;;;;;;21.07;11.63;;;;;;;21.76;53.01;99295.88;5023529;28;20694;-66
2021/09/22 07:38:54;;;;;;;18.07;11.70;;;;;;;23.00;50.54;99299.19;5034463;28;20213;-65
2021/09/22 07:41:21;;;;;;;19.30;12.13;;;;;;;22.90;50.68;99290.88;5026545;28;20212;-66
2021/09/22 07:43:48;;;;;;;19.57;12.17;;;;;;;20.94;55.03;99301.63;5027797;28;20226;-65
2021/09/22 07:46:16;;;;;;;19.13;11.83;;;;;;;22.47;52.38;99298.88;5036136;28;20219;-65
2021/09/22 07:48:43;;;;;;;21.80;12.30;;;;;;;20.79;54.78;99301.22;5034190;28;20198;-65
2021/09/22 07:51:10;;;;;;;22.93;12.57;;;;;;;21.55;54.03;99291.03;5033713;28;20426;-65
2021/09/22 07:53:37;;;;;;;21.93;12.40;;;;;;;20.65;57.19;99293.53;5033811;28;20229;-66
2021/09/22 07:56:06;;;;;;;21.83;12.73;;;;;;;22.25;52.60;99291.63;5025919;28;20200;-65
2021/09/22 07:58:34;;;;;;;19.60;11.77;;;;;;;23.83;48.32;99301.75;5034257;28;20209;-70
2021/09/22 08:01:01;;;;;;;20.13;12.53;;;;;;;22.20;51.33;99299.69;5023329;28;20680;-68
2021/09/22 08:03:28;;;;;;;21.00;13.37;;;;;;;21.46;53.94;99292.47;5033612;28;20309;-68
2021/09/22 08:05:56;;;;;;;22.40;12.10;;;;;;;21.68;51.98;99303.53;5028965;28;20225;-68
2021/09/22 08:08:23;;;;;;;18.73;12.57;;;;;;;20.76;55.86;99290.00;5034208;28;20202;-67
2021/09/22 08:10:51;;;;;;;25.00;12.07;;;;;;;22.99;49.72;99297.56;5025611;28;20584;-65
2021/09/22 08:13:19;;;;;;;19.80;11.93;;;;;;;23.90;47.13;99311.41;5035123;28;20224;-66
2021/09/22 08:15:47;;;;;;;19.10;12.47;;;;;;;22.61;49.73;99313.00;5030830;28;20545;-69
2021/09/22 08:18:14;;;;;;;16.67;12.10;;;;;;;21.74;49.69;99310.75;5030790;28;20214;-69
2021/09/22 08:20:42;;;;;;;22.13;11.03;;;;;;;23.16;47.64;99311.16;5034540;28;20289;-74
2021/09/22 08:23:09;;;;;;;20.20;11.73;;;;;;;23.04;47.04;99310.41;5034435;28;20234;-73
2021/09/22 08:25:37;;;;;;;17.60;11.67;;;;;;;23.70;44.92;99322.03;5042066;28;20210;-73
2021/09/22 08:28:05;;;;;;;16.93;11.63;;;;;;;21.94;49.90;99316.59;5034299;28;20789;-70
2021/09/22 08:30:33;;;;;;;16.97;10.67;;;;;;;23.63;46.50;99315.13;5029480;28;20832;-73
2021/09/22 08:33:01;;;;;;;17.73;10.87;;;;;;;22.96;46.84;99324.47;5034613;28;20596;-70
2021/09/22 08:35:29;;;;;;;16.60;11.87;;;;;;;22.37;47.59;99320.44;5034129;28;20202;-72
2021/09/22 08:37:56;;;;;;;16.67;10.93;;;;;;;22.56;47.46;99321.06;5033778;28;20229;-70
2021/09/22 08:40:23;;;;;;;17.43;10.97;;;;;;;24.48;43.08;99327.84;5034407;28;20202;-69
2021/09/22 08:42:51;;;;;;;16.93;10.50;;;;;;;24.59;42.30;99331.56;5028938;28;20726;-74
2021/09/22 08:45:19;;;;;;;16.27;10.40;;;;;;;23.63;41.69;99332.31;5030616;28;20206;-72
2021/09/22 08:47:48;;;;;;;16.00;10.30;;;;;;;23.35;43.85;99323.47;5041722;28;20293;-71
2021/09/22 08:50:18;;;;;;;13.67;9.27;;;;;;;23.20;43.04;99326.78;5032727;28;20206;-72
2021/09/22 08:52:46;;;;;;;12.53;9.03;;;;;;;23.08;43.17;99336.91;5033801;28;20199;-71
2021/09/22 08:55:14;;;;;;;13.10;8.90;;;;;;;22.84;43.82;99326.44;5033177;28;20210;-72
2021/09/22 08:57:41;;;;;;;14.63;9.07;;;;;;;24.70;41.25;99325.94;5033125;28;20207;-72
2021/09/22 09:00:11;;;;;;;12.60;9.00;;;;;;;24.74;41.04;99324.34;5031947;28;20651;-72
2021/09/22 09:02:39;;;;;;;12.17;9.07;;;;;;;23.98;42.38;99321.03;5039439;28;20211;-71
2021/09/22 09:05:11;;;;;;;12.20;8.93;;;;;;;25.38;39.43;99323.19;5032244;28;20294;-72
2021/09/22 09:07:48;;;;;;;11.27;7.90;;;;;;;26.05;37.90;99334.22;5025786;28;20204;-72
2021/09/22 09:10:16;;;;;;;11.67;8.90;;;;;;;25.28;38.41;99333.25;5033598;28;20262;-75
2021/09/22 09:12:43;;;;;;;10.63;7.87;;;;;;;25.25;38.52;99329.13;5033628;28;20200;-76
2021/09/22 09:15:13;;;;;;;12.27;8.00;;;;;;;23.54;41.42;99324.81;5033121;28;20212;-75
2021/09/22 09:17:43;;;;;;;12.63;8.13;;;;;;;24.23;40.01;99327.59;5036245;28;20290;-74
2021/09/22 09:20:20;;;;;;;12.13;8.67;;;;;;;24.76;39.62;99334.97;5034390;28;20204;-73
2021/09/22 09:23:09;;;;;;;19.37;8.40;;;;;;;24.65;39.93;99330.50;5033022;28;20299;-74
2021/09/22 09:25:39;;;;;;;12.17;8.10;;;;;;;25.45;38.79;99329.25;5032505;28;20654;-76
2021/09/22 09:28:22;;;;;;;14.77;7.90;;;;;;;25.43;38.37;99320.47;5032932;28;20243;-74
2021/09/22 09:30:51;;;;;;;11.10;7.30;;;;;;;24.60;38.23;99323.09;5029708;28;20222;-75
2021/09/22 09:33:37;;;;;;;10.53;7.20;;;;;;;25.23;37.98;99320.31;5029414;28;20238;-71
2021/09/22 09:36:23;;;;;;;9.97;5.87;;;;;;;24.51;38.54;99310.13;5022083;28;20623;-70
2021/09/22 09:38:53;;;;;;;10.33;5.63;;;;;;;25.37;35.14;99323.44;5020924;28;20262;-71
2021/09/22 09:41:26;;;;;;;10.93;6.50;;;;;;;24.50;38.61;99311.22;5032898;28;20217;-71
2021/09/22 09:43:53;;;;;;;8.83;4.57;;;;;;;24.78;34.55;99330.91;5030986;28;20220;-71
2021/09/22 09:46:22;;;;;;;8.13;4.70;;;;;;;26.11;32.26;99325.75;5030163;28;20213;-71
2021/09/22 09:49:01;;;;;;;6.57;4.47;;;;;;;25.49;33.90;99324.88;5037271;28;20205;-71
2021/09/22 09:51:37;;;;;;;6.03;5.03;;;;;;;26.70;32.97;99324.25;5032219;28;20281;-74
2021/09/22 09:54:09;;;;;;;9.23;5.70;;;;;;;25.57;34.14;99318.94;5032288;28;20210;-78
2021/09/22 09:56:36;;;;;;;11.93;6.03;;;;;;;24.23;36.47;99311.22;5018638;28;20679;-74
2021/09/22 09:59:04;;;;;;;9.83;6.30;;;;;;;24.73;36.90;99302.75;5032440;28;20549;-72
2021/09/22 10:01:41;;;;;;;10.40;5.33;;;;;;;24.93;36.43;99297.44;5024303;28;20205;-71
2021/09/22 10:04:09;;;;;;;6.40;4.27;;;;;;;25.67;34.70;99294.38;5031695;28;20225;-72
2021/09/22 10:06:38;;;;;;;8.10;4.80;;;;;;;24.85;36.54;99298.75;5028651;28;20209;-72
2021/09/22 10:09:06;;;;;;;10.63;5.53;;;;;;;25.21;35.41;99297.91;5031961;28;20203;-72
2021/09/22 10:11:35;;;;;;;6.87;4.73;;;;;;;26.24;35.45;99277.91;5032414;28;20572;-72
2021/09/22 10:14:03;;;;;;;9.13;5.70;;;;;;;26.40;34.08;99279.56;5031817;28;20219;-72
2021/09/22 10:16:31;;;;;;;8.33;5.33;;;;;;;27.50;32.88;99280.31;5035853;28;20205;-72
2021/09/22 10:18:58;;;;;;;7.67;4.93;;;;;;;24.84;36.40;99279.88;5032208;28;20197;-72
2021/09/22 10:21:26;;;;;;;6.37;4.83;;;;;;;26.57;33.95;99283.72;5024047;28;20221;-72
2021/09/22 10:23:57;;;;;;;6.70;4.60;;;;;;;;;;5024738;28;20596;-72
2021/09/22 10:26:24;;;;;;;6.33;4.63;;;;;;;25.19;36.98;99277.41;5024531;28;20204;-71
2021/09/22 10:28:56;;;;;;;8.67;5.10;;;;;;;26.42;34.55;99263.66;5032215;28;20206;-71
2021/09/22 10:31:36;;;;;;;6.47;5.47;;;;;;;25.98;34.23;99270.69;5032240;28;20295;-72
2021/09/22 10:34:05;;;;;;;9.90;5.10;;;;;;;26.96;32.56;99282.03;5031270;28;20230;-72
2021/09/22 10:36:38;;;;;;;7.13;5.17;;;;;;;26.10;35.89;99271.28;5036241;28;20201;-72
2021/09/22 10:39:08;;;;;;;7.77;5.03;;;;;;;25.64;35.34;99269.47;5032018;28;20199;-72
2021/09/22 10:41:45;;;;;;;8.23;5.33;;;;;;;24.50;37.61;99268.38;5031649;28;20190;-72
2021/09/22 10:44:24;;;;;;;7.80;4.97;;;;;;;25.93;36.54;99257.84;5031795;28;20590;-72
2021/09/22 10:46:52;;;;;;;9.73;5.87;;;;;;;25.37;37.75;99266.03;5031302;28;20932;-72
2021/09/22 10:49:19;;;;;;;8.90;4.77;;;;;;;27.30;34.16;99265.84;5042494;28;20985;-72
2021/09/22 10:51:48;;;;;;;6.50;4.50;;;;;;;26.46;34.01;99271.06;5031349;28;20213;-71
2021/09/22 10:54:19;;;;;;;7.43;4.40;;;;;;;26.88;33.16;99265.34;5033506;28;20702;-72
2021/09/22 10:56:55;;;;;;;6.83;4.67;;;;;;;26.09;35.13;99255.97;5030549;28;20207;-71
2021/09/22 10:59:28;;;;;;;6.33;4.47;;;;;;;26.61;34.29;99254.66;5035474;28;20209;-72
2021/09/22 11:01:55;;;;;;;6.73;4.10;;;;;;;26.85;33.71;99255.75;5035542;28;20220;-72
2021/09/22 11:04:24;;;;;;;8.77;4.50;;;;;;;26.54;33.72;99254.09;5038334;28;20712;-72
2021/09/22 11:06:57;;;;;;;5.83;4.30;;;;;;;27.30;33.00;99257.63;5033296;28;20198;-72
2021/09/22 11:09:36;;;;;;;6.30;4.17;;;;;;;28.37;30.61;99263.19;5031637;28;20798;-72
2021/09/22 11:12:11;;;;;;;6.53;3.70;;;;;;;26.49;32.52;99248.63;5033439;28;20753;-72
2021/09/22 11:14:46;;;;;;;5.10;3.03;;;;;;;27.22;32.35;99250.78;5036282;28;20226;-75
2021/09/22 11:17:17;;;;;;;7.30;3.70;;;;;;;25.31;35.91;99245.25;5034505;28;20217;-72
2021/09/22 11:19:46;;;;;;;6.37;4.07;;;;;;;26.22;34.30;99239.84;5044195;28;20595;-72
2021/09/22 11:22:15;;;;;;;5.03;3.40;;;;;;;25.52;34.97;99241.50;5034935;28;20202;-72
2021/09/22 11:24:44;;;;;;;4.83;3.07;;;;;;;25.56;34.34;99242.63;5041117;28;20236;-73
2021/09/22 11:27:14;;;;;;;4.20;3.10;;;;;;;26.37;32.47;99241.75;5035083;28;20221;-73